Green Stars — V7VZ5 — position and weather

sailwx.info

Track history (hours):
 
Tides and Currents Weather Stations Pressure Air Temp Water Temp Dewpoint Dewpoint Depression Visibility Wind Speed Wind Dir Waves Ship Positions

Green Stars

Last reported at 2017-Sep-21 16:55 UTC. Time now 2017-Sep-23 16:41 UTC.
Position N 31°23' E 032°20'.

Length 182 m; draft 7 m.

Type: Tanker. MMSI: 538004247.

Date/timePositionNaut miles runAvg speedWind from/ knotsBaromVisibWave heightAir tempDewpointWater temp
2017-Sep-21 16:55N 31°23' E 032°20'0 0.0
2017-Sep-21 15:46N 31°23' E 032°20'0 0.0
2017-Sep-21 14:58N 31°23' E 032°20'0 0.0
2017-Sep-21 14:13N 31°23' E 032°20'0 0.0
2017-Sep-21 13:49N 31°23' E 032°20'0 0.0
2017-Sep-21 13:25N 31°23' E 032°20'0 0.0
2017-Sep-21 12:07N 31°23' E 032°20'0 0.4
2017-Sep-21 11:58N 31°23' E 032°20'18 6.6
2017-Sep-21 09:15N 31°37' E 032°07'2 9.0
2017-Sep-21 08:59N 31°39' E 032°05'4 9.0
2017-Sep-21 08:30N 31°42' E 032°01'21 9.2
2017-Sep-21 06:16N 31°51' E 031°39'2211.9
2017-Sep-21 04:23N 31°57' E 031°14'1711.7
2017-Sep-21 02:55N 32°02' E 030°55'511.5
2017-Sep-21 02:30N 32°03' E 030°49'611.5
2017-Sep-21 02:00N 32°05' E 030°43'611.5
2017-Sep-21 01:30N 32°07' E 030°36'1810.8
2017-Sep-20 23:52N 32°12' E 030°16'511.1
2017-Sep-20 23:24N 32°13' E 030°10'411.0
2017-Sep-20 23:01N 32°14' E 030°05'611.0
2017-Sep-20 22:26N 32°16' E 029°58'1211.1
2017-Sep-20 21:20N 32°19' E 029°44'511.4
2017-Sep-20 20:52N 32°21' E 029°38'511.5
2017-Sep-20 20:27N 32°22' E 029°33'511.5
2017-Sep-20 20:00N 32°23' E 029°27'  
2017-Sep-18 07:56N 35°44' E 015°32'1011.6
2017-Sep-18 07:05N 35°47' E 015°20'111.7
2017-Sep-18 07:00N 35°48' E 015°19'611.5
2017-Sep-18 06:30N 35°49' E 015°12'611.4
2017-Sep-18 06:00N 35°51' E 015°06'611.4
2017-Sep-18 05:30N 35°52' E 014°59'710.8
2017-Sep-18 04:54N 35°53' E 014°51'2 5.6
2017-Sep-18 04:30N 35°54' E 014°48'0 0.3
2017-Sep-18 03:59N 35°54' E 014°48'0 0.0
2017-Sep-18 03:29N 35°54' E 014°48'0 0.1
2017-Sep-18 02:59N 35°54' E 014°48'0 0.0
2017-Sep-18 02:23N 35°54' E 014°48'0 0.0
2017-Sep-18 01:53N 35°54' E 014°48'0 0.0
2017-Sep-18 01:23N 35°54' E 014°48'0 0.0
2017-Sep-18 00:59N 35°54' E 014°48'0 0.0
2017-Sep-17 23:59N 35°54' E 014°48'0 0.0
2017-Sep-17 23:29N 35°54' E 014°48'0 0.1
2017-Sep-17 22:59N 35°54' E 014°48'0 0.1
2017-Sep-17 22:29N 35°54' E 014°48'0 0.1
2017-Sep-17 21:59N 35°54' E 014°48'0 0.1
2017-Sep-17 21:26N 35°54' E 014°48'0 0.1
2017-Sep-17 20:59N 35°54' E 014°48'0 0.1
2017-Sep-17 20:29N 35°54' E 014°48'0 0.0
2017-Sep-17 20:00N 35°54' E 014°48'0 0.0
2017-Sep-17 19:30N 35°54' E 014°48'0 0.4
2017-Sep-17 19:00N 35°54' E 014°49'1 2.5
2017-Sep-17 18:30N 35°55' E 014°48'2 3.3
2017-Sep-17 18:00N 35°56' E 014°47'2 4.9
2017-Sep-17 17:30N 35°58' E 014°46'3 6.3
2017-Sep-17 17:00N 35°60' E 014°43'5 9.2
2017-Sep-17 16:30N 36°02' E 014°37'510.8
2017-Sep-17 16:00N 36°04' E 014°31'611.9
2017-Sep-17 15:30N 36°07' E 014°25'612.1
2017-Sep-17 15:00N 36°09' E 014°18'612.2
2017-Sep-17 14:30N 36°12' E 014°11'612.6
2017-Sep-17 14:00N 36°15' E 014°04'612.6
2017-Sep-17 13:30N 36°18' E 013°57'612.7
2017-Sep-17 13:00N 36°20' E 013°50'612.5
2017-Sep-17 12:30N 36°23' E 013°43'612.3
2017-Sep-17 12:00N 36°26' E 013°36'612.1
2017-Sep-17 11:30N 36°28' E 013°29'612.0
2017-Sep-17 11:00N 36°31' E 013°23'5112.0
2017-Sep-17 06:42N 36°54' E 012°25'212.2
2017-Sep-17 06:30N 36°55' E 012°22'812.5
2017-Sep-17 05:51N 36°58' E 012°13'512.8
2017-Sep-17 05:29N 37°00' E 012°08'612.7
2017-Sep-17 05:00N 37°03' E 012°01'612.4
2017-Sep-17 04:30N 37°06' E 011°54'612.3
2017-Sep-17 04:00N 37°08' E 011°47'612.2
2017-Sep-17 03:30N 37°11' E 011°40'1212.2
2017-Sep-17 02:31N 37°16' E 011°27'012.3
2017-Sep-17 02:30N 37°16' E 011°26'612.2
2017-Sep-17 02:00N 37°19' E 011°20'3812.5
2017-Sep-16 22:58N 37°36' E 010°37'5312.6
2017-Sep-16 18:47N 37°47' E 009°32'  
2017-Sep-14 12:44N 36°53' E 006°57'1 3.0
2017-Sep-14 12:19N 36°55' E 006°57'1 1.8
2017-Sep-14 11:57N 36°55' E 006°56'11 4.5
2017-Sep-14 09:32N 37°06' E 006°53'0 0.5
2017-Sep-14 09:29N 37°06' E 006°53'186 5.1
2017-Sep-12 21:12N 38°31' E 003°23'211.1
2017-Sep-12 20:59N 38°32' E 003°20'511.1
2017-Sep-12 20:30N 38°34' E 003°14'511.1
2017-Sep-12 20:00N 38°37' E 003°08'611.1
2017-Sep-12 19:30N 38°40' E 003°02'511.1
2017-Sep-12 19:00N 38°42' E 002°56'611.2
2017-Sep-12 18:30N 38°45' E 002°49'611.1
2017-Sep-12 18:00N 38°48' E 002°43'511.0
2017-Sep-12 17:30N 38°50' E 002°37'611.1
2017-Sep-12 17:00N 38°53' E 002°31'611.2
2017-Sep-12 16:30N 38°58' E 002°26'611.3
2017-Sep-12 16:00N 39°02' E 002°22'611.5
2017-Sep-12 15:30N 39°07' E 002°18'611.8
2017-Sep-12 15:00N 39°12' E 002°13'612.1
2017-Sep-12 14:30N 39°17' E 002°09'612.2
2017-Sep-12 14:00N 39°21' E 002°04'712.4
2017-Sep-12 13:28N 39°27' E 001°59'612.4
2017-Sep-12 13:00N 39°31' E 001°54'612.4
2017-Sep-12 12:30N 39°36' E 001°50'612.2
2017-Sep-12 12:00N 39°41' E 001°45'612.3
2017-Sep-12 11:30N 39°46' E 001°40'612.2
2017-Sep-12 11:00N 39°51' E 001°36'612.2
2017-Sep-12 10:30N 39°56' E 001°31'612.4
2017-Sep-12 10:00N 40°01' E 001°26'612.3
2017-Sep-12 09:30N 40°06' E 001°21'612.2
2017-Sep-12 09:00N 40°11' E 001°16'612.2
2017-Sep-12 08:30N 40°16' E 001°12'5 9.5
2017-Sep-12 08:00N 40°20' E 001°08'0 0.9
2017-Sep-12 07:30N 40°20' E 001°08'0 0.1
2017-Sep-12 07:00N 40°20' E 001°08'0 0.1
2017-Sep-12 06:12N 40°20' E 001°08'0 0.3
2017-Sep-12 06:00N 40°20' E 001°08'0 0.1
2017-Sep-12 05:24N 40°20' E 001°08'0 0.0
2017-Sep-12 03:30N 40°20' E 001°08'0 0.0
2017-Sep-12 01:48N 40°20' E 001°08'0 0.0
2017-Sep-12 01:30N 40°20' E 001°08'0 0.0
2017-Sep-12 01:00N 40°20' E 001°08'0 0.1
2017-Sep-12 00:30N 40°20' E 001°08'0 0.1
2017-Sep-11 22:36N 40°20' E 001°08'0 0.0
2017-Sep-11 22:30N 40°20' E 001°08'0 0.0
2017-Sep-11 22:00N 40°20' E 001°08'0 0.0
2017-Sep-11 21:30N 40°20' E 001°08'0 0.0
2017-Sep-11 20:54N 40°20' E 001°08'0 0.0
2017-Sep-11 20:30N 40°20' E 001°08'0 0.0
2017-Sep-11 20:00N 40°20' E 001°08'0 0.1
2017-Sep-11 19:30N 40°20' E 001°08'0 0.1
2017-Sep-11 19:00N 40°20' E 001°08'0 0.0
2017-Sep-11 18:30N 40°20' E 001°08'0 0.0
2017-Sep-11 18:00N 40°20' E 001°08'0 0.0
2017-Sep-11 17:27N 40°20' E 001°08'  
Track history (hours):
 
Tides and Currents Weather Stations Pressure Air Temp Water Temp Dewpoint Dewpoint Depression Visibility Wind Speed Wind Dir Waves Ship Positions

Green Stars

Last reported at 2017-Sep-21 16:55 UTC. Time now 2017-Sep-23 16:41 UTC.
Position N 31°23' E 032°20'.

Length 182 m; draft 7 m.

Type: Tanker. MMSI: 538004247.

Date/timePositionNaut miles runAvg speedWind from/ knotsBaromVisibWave heightAir tempDewpointWater temp
2017-Sep-21 16:55N 31°23' E 032°20'0 0.0
2017-Sep-21 15:46N 31°23' E 032°20'0 0.0
2017-Sep-21 14:58N 31°23' E 032°20'0 0.0
2017-Sep-21 14:13N 31°23' E 032°20'0 0.0
2017-Sep-21 13:49N 31°23' E 032°20'0 0.0
2017-Sep-21 13:25N 31°23' E 032°20'0 0.0
2017-Sep-21 12:07N 31°23' E 032°20'0 0.4
2017-Sep-21 11:58N 31°23' E 032°20'18 6.6
2017-Sep-21 09:15N 31°37' E 032°07'2 9.0
2017-Sep-21 08:59N 31°39' E 032°05'4 9.0
2017-Sep-21 08:30N 31°42' E 032°01'21 9.2
2017-Sep-21 06:16N 31°51' E 031°39'2211.9
2017-Sep-21 04:23N 31°57' E 031°14'1711.7
2017-Sep-21 02:55N 32°02' E 030°55'511.5
2017-Sep-21 02:30N 32°03' E 030°49'611.5
2017-Sep-21 02:00N 32°05' E 030°43'611.5
2017-Sep-21 01:30N 32°07' E 030°36'1810.8
2017-Sep-20 23:52N 32°12' E 030°16'511.1
2017-Sep-20 23:24N 32°13' E 030°10'411.0
2017-Sep-20 23:01N 32°14' E 030°05'611.0
2017-Sep-20 22:26N 32°16' E 029°58'1211.1
2017-Sep-20 21:20N 32°19' E 029°44'511.4
2017-Sep-20 20:52N 32°21' E 029°38'511.5
2017-Sep-20 20:27N 32°22' E 029°33'511.5
2017-Sep-20 20:00N 32°23' E 029°27'  
2017-Sep-18 07:56N 35°44' E 015°32'1011.6
2017-Sep-18 07:05N 35°47' E 015°20'111.7
2017-Sep-18 07:00N 35°48' E 015°19'611.5
2017-Sep-18 06:30N 35°49' E 015°12'611.4
2017-Sep-18 06:00N 35°51' E 015°06'611.4
2017-Sep-18 05:30N 35°52' E 014°59'710.8
2017-Sep-18 04:54N 35°53' E 014°51'2 5.6
2017-Sep-18 04:30N 35°54' E 014°48'0 0.3
2017-Sep-18 03:59N 35°54' E 014°48'0 0.0
2017-Sep-18 03:29N 35°54' E 014°48'0 0.1
2017-Sep-18 02:59N 35°54' E 014°48'0 0.0
2017-Sep-18 02:23N 35°54' E 014°48'0 0.0
2017-Sep-18 01:53N 35°54' E 014°48'0 0.0
2017-Sep-18 01:23N 35°54' E 014°48'0 0.0
2017-Sep-18 00:59N 35°54' E 014°48'0 0.0
2017-Sep-17 23:59N 35°54' E 014°48'0 0.0
2017-Sep-17 23:29N 35°54' E 014°48'0 0.1
2017-Sep-17 22:59N 35°54' E 014°48'0 0.1
2017-Sep-17 22:29N 35°54' E 014°48'0 0.1
2017-Sep-17 21:59N 35°54' E 014°48'0 0.1
2017-Sep-17 21:26N 35°54' E 014°48'0 0.1
2017-Sep-17 20:59N 35°54' E 014°48'0 0.1
2017-Sep-17 20:29N 35°54' E 014°48'0 0.0
2017-Sep-17 20:00N 35°54' E 014°48'0 0.0
2017-Sep-17 19:30N 35°54' E 014°48'0 0.4
2017-Sep-17 19:00N 35°54' E 014°49'1 2.5
2017-Sep-17 18:30N 35°55' E 014°48'2 3.3
2017-Sep-17 18:00N 35°56' E 014°47'2 4.9
2017-Sep-17 17:30N 35°58' E 014°46'3 6.3
2017-Sep-17 17:00N 35°60' E 014°43'5 9.2
2017-Sep-17 16:30N 36°02' E 014°37'510.8
2017-Sep-17 16:00N 36°04' E 014°31'611.9
2017-Sep-17 15:30N 36°07' E 014°25'612.1
2017-Sep-17 15:00N 36°09' E 014°18'612.2
2017-Sep-17 14:30N 36°12' E 014°11'612.6
2017-Sep-17 14:00N 36°15' E 014°04'612.6
2017-Sep-17 13:30N 36°18' E 013°57'612.7
2017-Sep-17 13:00N 36°20' E 013°50'612.5
2017-Sep-17 12:30N 36°23' E 013°43'612.3
2017-Sep-17 12:00N 36°26' E 013°36'612.1
2017-Sep-17 11:30N 36°28' E 013°29'612.0
2017-Sep-17 11:00N 36°31' E 013°23'5112.0
2017-Sep-17 06:42N 36°54' E 012°25'212.2
2017-Sep-17 06:30N 36°55' E 012°22'812.5
2017-Sep-17 05:51N 36°58' E 012°13'512.8
2017-Sep-17 05:29N 37°00' E 012°08'612.7
2017-Sep-17 05:00N 37°03' E 012°01'612.4
2017-Sep-17 04:30N 37°06' E 011°54'612.3
2017-Sep-17 04:00N 37°08' E 011°47'612.2
2017-Sep-17 03:30N 37°11' E 011°40'1212.2
2017-Sep-17 02:31N 37°16' E 011°27'012.3
2017-Sep-17 02:30N 37°16' E 011°26'612.2
2017-Sep-17 02:00N 37°19' E 011°20'3812.5
2017-Sep-16 22:58N 37°36' E 010°37'5312.6
2017-Sep-16 18:47N 37°47' E 009°32'  
2017-Sep-14 12:44N 36°53' E 006°57'1 3.0
2017-Sep-14 12:19N 36°55' E 006°57'1 1.8
2017-Sep-14 11:57N 36°55' E 006°56'11 4.5
2017-Sep-14 09:32N 37°06' E 006°53'0 0.5
2017-Sep-14 09:29N 37°06' E 006°53'186 5.1
2017-Sep-12 21:12N 38°31' E 003°23'211.1
2017-Sep-12 20:59N 38°32' E 003°20'511.1
2017-Sep-12 20:30N 38°34' E 003°14'511.1
2017-Sep-12 20:00N 38°37' E 003°08'611.1
2017-Sep-12 19:30N 38°40' E 003°02'511.1
2017-Sep-12 19:00N 38°42' E 002°56'611.2
2017-Sep-12 18:30N 38°45' E 002°49'611.1
2017-Sep-12 18:00N 38°48' E 002°43'511.0
2017-Sep-12 17:30N 38°50' E 002°37'611.1
2017-Sep-12 17:00N 38°53' E 002°31'611.2
2017-Sep-12 16:30N 38°58' E 002°26'611.3
2017-Sep-12 16:00N 39°02' E 002°22'611.5
2017-Sep-12 15:30N 39°07' E 002°18'611.8
2017-Sep-12 15:00N 39°12' E 002°13'612.1
2017-Sep-12 14:30N 39°17' E 002°09'612.2
2017-Sep-12 14:00N 39°21' E 002°04'712.4
2017-Sep-12 13:28N 39°27' E 001°59'612.4
2017-Sep-12 13:00N 39°31' E 001°54'612.4
2017-Sep-12 12:30N 39°36' E 001°50'612.2
2017-Sep-12 12:00N 39°41' E 001°45'612.3
2017-Sep-12 11:30N 39°46' E 001°40'612.2
2017-Sep-12 11:00N 39°51' E 001°36'612.2
2017-Sep-12 10:30N 39°56' E 001°31'612.4
2017-Sep-12 10:00N 40°01' E 001°26'612.3
2017-Sep-12 09:30N 40°06' E 001°21'612.2
2017-Sep-12 09:00N 40°11' E 001°16'612.2
2017-Sep-12 08:30N 40°16' E 001°12'5 9.5
2017-Sep-12 08:00N 40°20' E 001°08'0 0.9
2017-Sep-12 07:30N 40°20' E 001°08'0 0.1
2017-Sep-12 07:00N 40°20' E 001°08'0 0.1
2017-Sep-12 06:12N 40°20' E 001°08'0 0.3
2017-Sep-12 06:00N 40°20' E 001°08'0 0.1
2017-Sep-12 05:24N 40°20' E 001°08'0 0.0
2017-Sep-12 03:30N 40°20' E 001°08'0 0.0
2017-Sep-12 01:48N 40°20' E 001°08'0 0.0
2017-Sep-12 01:30N 40°20' E 001°08'0 0.0
2017-Sep-12 01:00N 40°20' E 001°08'0 0.1
2017-Sep-12 00:30N 40°20' E 001°08'0 0.1
2017-Sep-11 22:36N 40°20' E 001°08'0 0.0
2017-Sep-11 22:30N 40°20' E 001°08'0 0.0
2017-Sep-11 22:00N 40°20' E 001°08'0 0.0
2017-Sep-11 21:30N 40°20' E 001°08'0 0.0
2017-Sep-11 20:54N 40°20' E 001°08'0 0.0
2017-Sep-11 20:30N 40°20' E 001°08'0 0.0
2017-Sep-11 20:00N 40°20' E 001°08'0 0.1
2017-Sep-11 19:30N 40°20' E 001°08'0 0.1
2017-Sep-11 19:00N 40°20' E 001°08'0 0.0
2017-Sep-11 18:30N 40°20' E 001°08'0 0.0
2017-Sep-11 18:00N 40°20' E 001°08'0 0.0
2017-Sep-11 17:27N 40°20' E 001°08'  

Dump ship's entire track history